createdAt,value
2023-04-16T00:01:25.840Z,101529.44
2023-04-16T00:03:52.506Z,101505.53
2023-04-16T00:06:19.182Z,101519.41
2023-04-16T00:08:45.686Z,101533.56
2023-04-16T00:11:12.362Z,101520.94
2023-04-16T00:13:38.843Z,101533.97
2023-04-16T00:16:05.634Z,101533.28
2023-04-16T00:18:32.088Z,101538.78
2023-04-16T00:20:59.548Z,101523.81
2023-04-16T00:23:25.977Z,101529.31
2023-04-16T00:25:53.707Z,101538.38
2023-04-16T00:28:20.245Z,101540.28
2023-04-16T00:30:46.726Z,101535.63
2023-04-16T00:33:13.319Z,101540.53
2023-04-16T00:35:39.815Z,101531.50
2023-04-16T00:38:06.332Z,101531.22
2023-04-16T00:40:32.755Z,101543.03
2023-04-16T00:42:59.218Z,101537.16
2023-04-16T00:45:25.769Z,101545.91
2023-04-16T00:47:52.273Z,101535.06
2023-04-16T00:50:18.993Z,101535.06
2023-04-16T00:52:47.638Z,101563.91
2023-04-16T00:55:18.941Z,101553.75
2023-04-16T00:57:46.105Z,101555.41
2023-04-16T01:00:13.258Z,101551.44
2023-04-16T01:02:39.852Z,101564.06
2023-04-16T01:05:06.696Z,101553.34
2023-04-16T01:07:33.187Z,101542.47
2023-04-16T01:09:59.669Z,101560.06
2023-04-16T01:12:26.309Z,101565.16
2023-04-16T01:14:53.010Z,101563.50
2023-04-16T01:17:19.493Z,101568.47
2023-04-16T01:19:48.836Z,101555.28
2023-04-16T01:22:15.270Z,101567.34
2023-04-16T01:24:41.820Z,101571.75
2023-04-16T01:27:08.253Z,101570.94
2023-04-16T01:29:35.068Z,101569.13
2023-04-16T01:32:01.543Z,101559.78
2023-04-16T01:34:28.006Z,101546.88
2023-04-16T01:36:54.472Z,101573.38
2023-04-16T01:39:21.032Z,101576.28
2023-04-16T01:41:47.470Z,101576.41
2023-04-16T01:44:13.910Z,101579.44
2023-04-16T01:46:40.633Z,101573.13
2023-04-16T01:49:07.580Z,101566.25
2023-04-16T01:51:34.224Z,101581.38
2023-04-16T01:54:01.174Z,101580.28
2023-04-16T01:56:27.638Z,101560.19
2023-04-16T01:58:54.180Z,101546.88
2023-04-16T02:01:20.814Z,101576.00
2023-04-16T02:03:47.754Z,101570.50
2023-04-16T02:06:14.859Z,101576.00
2023-04-16T02:08:41.746Z,101576.81
2023-04-16T02:11:08.220Z,101568.88
2023-04-16T02:13:34.894Z,101572.56
2023-04-16T02:16:02.534Z,101576.28
2023-04-16T02:18:29.101Z,101567.50
2023-04-16T02:20:58.625Z,101581.63
2023-04-16T02:23:25.066Z,101560.06
2023-04-16T02:25:51.636Z,101573.28
2023-04-16T02:28:18.230Z,101558.28
2023-04-16T02:30:44.752Z,101574.50
2023-04-16T02:33:12.404Z,101576.72
2023-04-16T02:35:39.656Z,101575.06
2023-04-16T02:38:06.311Z,101577.94
2023-04-16T02:40:32.951Z,101573.53
2023-04-16T02:42:59.461Z,101552.91
2023-04-16T02:45:25.958Z,101569.53
2023-04-16T02:47:52.498Z,101580.09
2023-04-16T02:50:19.116Z,101572.41
2023-04-16T02:52:45.808Z,101582.94
2023-04-16T02:55:12.360Z,101579.66
2023-04-16T02:57:38.867Z,101583.22
2023-04-16T03:00:05.942Z,101588.81
2023-04-16T03:02:32.517Z,101580.28
2023-04-16T03:05:00.315Z,101589.59
2023-04-16T03:07:26.746Z,101573.41
2023-04-16T03:09:53.170Z,101584.28
2023-04-16T03:12:19.586Z,101577.03
2023-04-16T03:14:46.163Z,101592.28
2023-04-16T03:17:12.670Z,101589.97
2023-04-16T03:19:39.185Z,101590.94
2023-04-16T03:22:05.738Z,101577.72
2023-04-16T03:24:32.225Z,101593.84
2023-04-16T03:26:59.002Z,101589.84
2023-04-16T03:29:26.755Z,101596.44
2023-04-16T03:34:43.873Z,101596.72
2023-04-16T03:37:12.012Z,101576.91
2023-04-16T03:39:38.650Z,101614.56
2023-04-16T03:42:05.172Z,101583.81
2023-04-16T03:44:31.661Z,101604.94
2023-04-16T03:46:58.166Z,101613.09
2023-04-16T03:49:24.643Z,101602.47
2023-04-16T03:51:51.238Z,101622.69
2023-04-16T03:54:19.269Z,101623.22
2023-04-16T03:56:47.147Z,101619.22
2023-04-16T03:59:13.653Z,101627.75
2023-04-16T04:01:40.547Z,101619.94
2023-04-16T04:04:07.564Z,101603.41
2023-04-16T04:06:34.043Z,101604.63
2023-04-16T04:09:03.845Z,101599.69
2023-04-16T04:11:30.321Z,101618.53
2023-04-16T04:13:56.870Z,101625.41
2023-04-16T04:16:23.404Z,101619.09
2023-04-16T04:18:50.107Z,101628.00
2023-04-16T04:21:16.577Z,101635.53
2023-04-16T04:23:43.675Z,101629.22
2023-04-16T04:26:10.196Z,101643.09
2023-04-16T04:28:36.699Z,101630.69
2023-04-16T04:31:03.231Z,101627.06
2023-04-16T04:33:29.675Z,101649.75
2023-04-16T04:35:56.405Z,101648.50
2023-04-16T04:38:25.235Z,101641.09
2023-04-16T04:40:52.841Z,101652.19
2023-04-16T04:43:20.312Z,101651.19
2023-04-16T04:45:46.951Z,101647.47
2023-04-16T04:48:13.592Z,101664.94
2023-04-16T04:50:41.013Z,101642.66
2023-04-16T04:53:10.132Z,101664.38
2023-04-16T04:55:38.260Z,101658.44
2023-04-16T04:58:08.407Z,101665.19
2023-04-16T05:00:36.282Z,101664.38
2023-04-16T05:03:04.549Z,101667.00
2023-04-16T05:05:31.142Z,101676.06
2023-04-16T05:07:57.735Z,101659.69
2023-04-16T05:10:24.245Z,101671.47
2023-04-16T05:12:50.764Z,101669.41
2023-04-16T05:15:17.213Z,101679.56
2023-04-16T05:17:43.732Z,101679.56
2023-04-16T05:20:10.571Z,101668.25
2023-04-16T05:22:37.253Z,101674.41
2023-04-16T05:25:04.056Z,101688.47
2023-04-16T05:27:30.738Z,101669.84
2023-04-16T05:29:57.151Z,101689.25
2023-04-16T05:32:26.299Z,101694.22
2023-04-16T05:34:52.871Z,101698.22
2023-04-16T05:37:19.342Z,101705.94
2023-04-16T05:39:45.879Z,101715.88
2023-04-16T05:42:12.288Z,101702.13
2023-04-16T05:44:38.819Z,101715.31
2023-04-16T05:47:07.334Z,101716.13
2023-04-16T05:49:33.836Z,101706.66
2023-04-16T05:52:00.816Z,101696.03
2023-04-16T05:54:27.220Z,101698.59
2023-04-16T05:56:53.793Z,101704.69
2023-04-16T05:59:20.812Z,101702.31
2023-04-16T06:01:47.267Z,101701.13
2023-04-16T06:04:13.909Z,101710.78
2023-04-16T06:06:40.548Z,101709.94
2023-04-16T06:09:10.885Z,101720.38
2023-04-16T06:11:37.574Z,101740.84
2023-04-16T06:14:04.006Z,101728.91
2023-04-16T06:16:30.454Z,101735.97
2023-04-16T06:18:56.884Z,101735.72
2023-04-16T06:21:23.574Z,101741.09
2023-04-16T06:23:51.667Z,101723.50
2023-04-16T06:26:18.320Z,101700.22
2023-04-16T06:28:44.750Z,101731.34
2023-04-16T06:31:13.451Z,101742.66
2023-04-16T06:33:39.929Z,101736.38
2023-04-16T06:36:06.533Z,101750.41
2023-04-16T06:38:32.974Z,101735.03
2023-04-16T06:40:59.648Z,101753.38
2023-04-16T06:43:26.324Z,101748.44
2023-04-16T06:45:52.787Z,101754.78
2023-04-16T06:48:19.204Z,101734.56
2023-04-16T06:50:45.755Z,101739.84
2023-04-16T06:53:12.215Z,101740.72
2023-04-16T06:55:38.713Z,101754.66
2023-04-16T06:58:05.124Z,101751.47
2023-04-16T07:00:31.592Z,101768.78
2023-04-16T07:02:58.722Z,101762.34
2023-04-16T07:05:25.739Z,101761.25
2023-04-16T07:07:52.260Z,101777.50
2023-04-16T07:10:18.676Z,101768.94
2023-04-16T07:12:45.207Z,101768.13
2023-04-16T07:15:11.768Z,101773.09
2023-04-16T07:17:38.332Z,101780.53
2023-04-16T07:20:05.570Z,101781.91
2023-04-16T07:22:32.220Z,101783.53
2023-04-16T07:24:58.635Z,101781.34
2023-04-16T07:27:25.201Z,101781.22
2023-04-16T07:29:51.673Z,101786.69
2023-04-16T07:32:18.170Z,101784.22
2023-04-16T07:34:44.896Z,101787.66
2023-04-16T07:37:11.364Z,101788.50
2023-04-16T07:39:37.770Z,101787.94
2023-04-16T07:42:04.266Z,101790.28
2023-04-16T07:44:30.778Z,101788.63
2023-04-16T07:46:57.234Z,101788.78
2023-04-16T07:49:23.748Z,101796.75
2023-04-16T07:51:50.293Z,101804.19
2023-04-16T07:54:16.842Z,101803.06
2023-04-16T07:56:47.384Z,101789.28
2023-04-16T07:59:22.824Z,101806.75
2023-04-16T08:01:50.361Z,101805.91
2023-04-16T08:04:23.004Z,101794.44
2023-04-16T08:06:50.800Z,101808.72
2023-04-16T08:09:17.524Z,101813.66
2023-04-16T08:11:43.917Z,101824.66
2023-04-16T08:14:10.500Z,101811.28
2023-04-16T08:16:36.907Z,101806.25
2023-04-16T08:19:03.619Z,101812.06
2023-04-16T08:21:33.240Z,101814.78
2023-04-16T08:24:02.196Z,101815.41
2023-04-16T08:26:28.642Z,101817.78
2023-04-16T08:28:55.042Z,101828.81
2023-04-16T08:31:21.637Z,101828.97
2023-04-16T08:33:48.082Z,101830.38
2023-04-16T08:36:14.520Z,101834.41
2023-04-16T08:38:40.981Z,101826.28
2023-04-16T08:41:12.073Z,101837.59
2023-04-16T08:43:45.594Z,101831.78
2023-04-16T08:46:18.624Z,101824.41
2023-04-16T08:48:49.034Z,101839.44
2023-04-16T08:51:19.307Z,101834.47
2023-04-16T08:53:53.007Z,101846.38
2023-04-16T08:56:23.891Z,101838.34
2023-04-16T08:58:51.380Z,101851.31
2023-04-16T09:01:19.036Z,101844.94
2023-04-16T09:03:49.034Z,101849.59
2023-04-16T09:06:16.578Z,101854.91
2023-04-16T09:08:49.061Z,101851.44
2023-04-16T09:11:20.481Z,101844.81
2023-04-16T09:13:47.572Z,101856.78
2023-04-16T09:16:14.921Z,101847.69
2023-04-16T09:18:41.555Z,101846.44
2023-04-16T09:21:11.125Z,101853.88
2023-04-16T09:23:38.862Z,101853.88
2023-04-16T09:26:06.006Z,101860.00
2023-04-16T09:28:43.430Z,101862.13
2023-04-16T09:31:20.091Z,101864.88
2023-04-16T09:34:07.311Z,101862.72
2023-04-16T09:36:34.576Z,101863.69
2023-04-16T09:39:01.836Z,101866.34
2023-04-16T09:41:30.097Z,101865.34
2023-04-16T09:44:01.873Z,101855.59
2023-04-16T09:46:34.644Z,101872.34
2023-04-16T09:49:18.605Z,101870.66
2023-04-16T09:51:52.686Z,101870.78
2023-04-16T09:54:20.338Z,101867.94
2023-04-16T09:56:46.960Z,101869.84
2023-04-16T09:59:21.135Z,101872.72
2023-04-16T10:01:49.508Z,101867.50
2023-04-16T10:04:16.924Z,101874.03
2023-04-16T10:06:44.126Z,101871.34
2023-04-16T10:09:11.014Z,101875.66
2023-04-16T10:11:37.810Z,101879.63
2023-04-16T10:14:06.855Z,101870.97
2023-04-16T10:16:34.555Z,101873.31
2023-04-16T10:19:01.352Z,101877.97
2023-04-16T10:21:33.762Z,101874.34
2023-04-16T10:24:00.795Z,101880.97
2023-04-16T10:26:29.005Z,101878.84
2023-04-16T10:28:56.042Z,101874.50
2023-04-16T10:31:22.873Z,101881.31
2023-04-16T10:33:49.872Z,101871.13
2023-04-16T10:36:22.657Z,101879.19
2023-04-16T10:38:58.363Z,101879.97
2023-04-16T10:41:29.165Z,101877.66
2023-04-16T10:44:06.459Z,101879.16
2023-04-16T10:46:36.754Z,101868.69
2023-04-16T10:49:13.965Z,101864.06
2023-04-16T10:51:41.227Z,101873.78
2023-04-16T10:54:14.508Z,101888.63
2023-04-16T10:56:41.011Z,101873.78
2023-04-16T10:59:10.978Z,101884.16
2023-04-16T11:01:42.349Z,101876.53
2023-04-16T11:04:21.387Z,101882.44
2023-04-16T11:07:02.144Z,101878.00
2023-04-16T11:09:59.379Z,101881.06
2023-04-16T11:12:42.109Z,101879.78
2023-04-16T11:15:17.048Z,101878.41
2023-04-16T11:17:45.704Z,101871.22
2023-04-16T11:20:23.499Z,101876.59
2023-04-16T11:22:51.782Z,101864.91
2023-04-16T11:25:34.011Z,101870.19
2023-04-16T11:28:02.316Z,101865.56
2023-04-16T11:30:31.473Z,101877.72
2023-04-16T11:32:57.917Z,101870.78
2023-04-16T11:35:24.481Z,101873.22
2023-04-16T11:37:56.329Z,101878.19
2023-04-16T11:40:22.824Z,101869.69
2023-04-16T11:42:49.282Z,101878.16
2023-04-16T11:45:15.678Z,101874.84
2023-04-16T11:47:45.676Z,101882.03
2023-04-16T11:50:25.055Z,101879.19
2023-04-16T11:52:53.692Z,101887.84
2023-04-16T11:55:20.662Z,101885.88
2023-04-16T11:57:47.150Z,101884.25
2023-04-16T12:00:15.022Z,101885.38
2023-04-16T12:02:43.340Z,101883.72
2023-04-16T12:05:35.616Z,101892.41
2023-04-16T12:08:07.331Z,101897.31
2023-04-16T12:10:52.468Z,101891.06
2023-04-16T12:13:19.705Z,101893.41
2023-04-16T12:15:48.218Z,101880.19
2023-04-16T12:18:18.345Z,101882.41
2023-04-16T12:20:59.397Z,101856.06
2023-04-16T12:23:27.953Z,101894.03
2023-04-16T12:25:55.274Z,101894.50
2023-04-16T12:28:33.577Z,101899.69
2023-04-16T12:31:01.689Z,101900.31
2023-04-16T12:33:28.339Z,101891.53
2023-04-16T12:35:54.929Z,101895.00
2023-04-16T12:38:24.076Z,101897.00
2023-04-16T12:40:51.231Z,101893.03
2023-04-16T12:43:17.900Z,101893.69
2023-04-16T12:45:44.545Z,101887.75
2023-04-16T12:48:11.496Z,101895.50
2023-04-16T12:50:39.596Z,101892.81
2023-04-16T12:53:06.253Z,101892.47
2023-04-16T12:55:32.874Z,101893.56
2023-04-16T12:57:59.288Z,101890.19
2023-04-16T13:00:25.789Z,101893.00
2023-04-16T13:02:52.273Z,101882.06
2023-04-16T13:05:19.307Z,101887.34
2023-04-16T13:07:46.147Z,101883.97
2023-04-16T13:10:13.632Z,101885.31
2023-04-16T13:12:40.259Z,101892.09
2023-04-16T13:15:07.335Z,101882.44
2023-04-16T13:17:33.774Z,101892.16
2023-04-16T13:20:00.326Z,101892.41
2023-04-16T13:22:26.787Z,101884.34
2023-04-16T13:24:53.290Z,101887.72
2023-04-16T13:27:20.301Z,101898.59
2023-04-16T13:29:47.123Z,101897.97
2023-04-16T13:32:14.700Z,101890.69
2023-04-16T13:34:41.151Z,101883.38
2023-04-16T13:37:07.744Z,101900.25
2023-04-16T13:39:34.171Z,101884.28
2023-04-16T13:42:00.694Z,101890.75
2023-04-16T13:44:27.133Z,101886.72
2023-04-16T13:46:53.635Z,101885.72
2023-04-16T13:49:20.230Z,101879.53
2023-04-16T13:51:46.786Z,101885.47
2023-04-16T13:54:13.247Z,101878.59
2023-04-16T13:56:40.784Z,101878.06
2023-04-16T13:59:07.977Z,101882.16
2023-04-16T14:01:34.633Z,101878.41
2023-04-16T14:04:06.276Z,101879.34
2023-04-16T14:06:34.334Z,101874.88
2023-04-16T14:09:01.271Z,101883.06
2023-04-16T14:11:27.847Z,101880.41
2023-04-16T14:13:54.793Z,101877.53
2023-04-16T14:16:21.319Z,101877.28
2023-04-16T14:18:47.913Z,101877.75
2023-04-16T14:21:14.416Z,101883.31
2023-04-16T14:23:41.125Z,101880.97
2023-04-16T14:26:07.596Z,101873.09
2023-04-16T14:28:35.534Z,101872.16
2023-04-16T14:31:02.075Z,101879.84
2023-04-16T14:33:28.564Z,101877.00
2023-04-16T14:35:55.146Z,101879.91
2023-04-16T14:38:21.921Z,101869.97
2023-04-16T14:40:48.736Z,101871.41
2023-04-16T14:43:15.501Z,101870.91
2023-04-16T14:45:42.002Z,101877.75
2023-04-16T14:48:08.584Z,101869.69
2023-04-16T14:50:38.898Z,101874.44
2023-04-16T14:53:05.637Z,101869.06
2023-04-16T14:55:32.424Z,101873.13
2023-04-16T14:57:59.728Z,101873.72
2023-04-16T15:00:26.451Z,101869.31
2023-04-16T15:02:54.215Z,101873.16
2023-04-16T15:05:20.834Z,101872.28
2023-04-16T15:07:47.525Z,101876.66
2023-04-16T15:10:14.054Z,101878.31
2023-04-16T15:12:40.753Z,101868.69
2023-04-16T15:15:08.622Z,101865.22
2023-04-16T15:17:35.427Z,101875.88
2023-04-16T15:20:02.072Z,101872.41
2023-04-16T15:22:28.597Z,101877.84
2023-04-16T15:24:55.104Z,101880.69
2023-04-16T15:27:21.643Z,101871.22
2023-04-16T15:29:49.399Z,101874.84
2023-04-16T15:32:16.111Z,101866.28
2023-04-16T15:34:42.569Z,101872.56
2023-04-16T15:37:09.667Z,101871.94
2023-04-16T15:39:36.097Z,101872.75
2023-04-16T15:42:07.054Z,101872.97
2023-04-16T15:44:34.505Z,101864.66
2023-04-16T15:47:01.083Z,101864.69
2023-04-16T15:49:27.638Z,101873.53
2023-04-16T15:51:54.289Z,101872.03
2023-04-16T15:54:20.790Z,101870.72
2023-04-16T15:56:47.333Z,101879.63
2023-04-16T15:59:13.817Z,101882.25
2023-04-16T16:01:40.859Z,101885.25
2023-04-16T16:04:08.028Z,101888.69
2023-04-16T16:06:35.009Z,101885.91
2023-04-16T16:09:01.768Z,101870.66
2023-04-16T16:11:28.471Z,101888.47
2023-04-16T16:13:55.187Z,101883.44
2023-04-16T16:16:22.152Z,101887.28
2023-04-16T16:18:48.772Z,101889.69
2023-04-16T16:21:15.134Z,101890.88
2023-04-16T16:23:41.537Z,101892.34
2023-04-16T16:26:07.878Z,101886.22
2023-04-16T16:28:37.480Z,101889.53
2023-04-16T16:31:04.630Z,101893.19
2023-04-16T16:33:30.959Z,101886.13
2023-04-16T16:35:57.420Z,101890.25
2023-04-16T16:38:23.722Z,101889.94
2023-04-16T16:40:50.171Z,101890.94
2023-04-16T16:43:19.016Z,101892.31
2023-04-16T16:45:46.505Z,101888.34
2023-04-16T16:48:12.982Z,101896.28
2023-04-16T16:50:39.485Z,101895.97
2023-04-16T16:53:06.238Z,101891.22
2023-04-16T16:55:32.753Z,101900.31
2023-04-16T16:57:59.262Z,101897.38
2023-04-16T17:00:25.826Z,101901.16
2023-04-16T17:02:52.625Z,101900.19
2023-04-16T17:05:19.849Z,101909.72
2023-04-16T17:07:46.687Z,101905.94
2023-04-16T17:10:19.959Z,101907.59
2023-04-16T17:12:48.358Z,101899.50
2023-04-16T17:15:15.560Z,101904.63
2023-04-16T17:17:42.484Z,101906.25
2023-04-16T17:20:14.645Z,101898.19
2023-04-16T17:22:42.049Z,101899.00
2023-04-16T17:25:08.860Z,101903.91
2023-04-16T17:27:35.842Z,101905.25
2023-04-16T17:30:03.485Z,101904.06
2023-04-16T17:32:32.501Z,101906.22
2023-04-16T17:35:00.495Z,101905.53
2023-04-16T17:37:27.361Z,101908.34
2023-04-16T17:39:53.921Z,101911.09
2023-04-16T17:42:20.561Z,101918.47
2023-04-16T17:44:47.233Z,101926.31
2023-04-16T17:47:13.804Z,101931.38
2023-04-16T17:49:41.840Z,101917.53
2023-04-16T17:52:08.377Z,101917.03
2023-04-16T17:54:34.849Z,101912.09
2023-04-16T17:57:02.244Z,101926.03
2023-04-16T17:59:28.963Z,101911.00
2023-04-16T18:01:56.742Z,101920.34
2023-04-16T18:04:23.659Z,101878.59
2023-04-16T18:06:50.343Z,101893.72
2023-04-16T18:09:17.195Z,101921.09
2023-04-16T18:11:43.695Z,101930.44
2023-04-16T18:14:11.597Z,101936.28
2023-04-16T18:16:38.445Z,101943.00
2023-04-16T18:19:05.552Z,101945.72
2023-04-16T18:21:32.150Z,101945.34
2023-04-16T18:24:00.859Z,101948.41
2023-04-16T18:26:29.633Z,101953.66
2023-04-16T18:28:56.647Z,101968.25
2023-04-16T18:31:23.244Z,101945.78
2023-04-16T18:33:57.244Z,101952.84
2023-04-16T18:36:27.503Z,101966.66
2023-04-16T18:39:00.866Z,101965.13
2023-04-16T18:41:28.510Z,101966.16
2023-04-16T18:43:55.047Z,101968.75
2023-04-16T18:46:21.630Z,101973.63
2023-04-16T18:48:48.518Z,101929.34
2023-04-16T18:51:16.262Z,101967.75
2023-04-16T18:53:44.368Z,101925.69
2023-04-16T18:56:11.667Z,101963.25
2023-04-16T18:58:38.598Z,101926.94
2023-04-16T19:01:54.331Z,101987.13
2023-04-16T19:04:21.318Z,101930.09
2023-04-16T19:06:48.527Z,101973.03
2023-04-16T19:09:16.005Z,101967.66
2023-04-16T19:11:42.874Z,101967.41
2023-04-16T19:14:09.309Z,101981.75
2023-04-16T19:16:35.797Z,101994.13
2023-04-16T19:19:02.408Z,101993.28
2023-04-16T19:21:28.870Z,101983.53
2023-04-16T19:23:55.385Z,102000.19
2023-04-16T19:26:21.857Z,101988.78
2023-04-16T19:28:48.283Z,101994.44
2023-04-16T19:31:16.095Z,101992.31
2023-04-16T19:33:42.599Z,102005.97
2023-04-16T19:36:09.053Z,102004.34
2023-04-16T19:38:35.486Z,101993.59
2023-04-16T19:41:01.923Z,101988.13
2023-04-16T19:43:30.809Z,101987.03
2023-04-16T19:45:57.764Z,101974.97
2023-04-16T19:48:24.349Z,101987.34
2023-04-16T19:50:51.202Z,102007.75
2023-04-16T19:53:17.861Z,102011.78
2023-04-16T19:55:44.330Z,102004.34
2023-04-16T19:58:10.953Z,102009.97
2023-04-16T20:00:40.764Z,102012.22
2023-04-16T20:03:07.479Z,102016.72
2023-04-16T20:05:33.974Z,102005.44
2023-04-16T20:08:00.552Z,102004.63
2023-04-16T20:10:27.765Z,102017.47
2023-04-16T20:12:54.219Z,102019.53
2023-04-16T20:15:20.850Z,102023.16
2023-04-16T20:17:47.404Z,102015.94
2023-04-16T20:20:15.761Z,102012.34
2023-04-16T20:22:42.830Z,102023.38
2023-04-16T20:25:09.776Z,102016.66
2023-04-16T20:27:36.253Z,102009.72
2023-04-16T20:30:03.602Z,102015.66
2023-04-16T20:32:30.138Z,102016.66
2023-04-16T20:34:56.596Z,102011.69
2023-04-16T20:37:23.092Z,102019.09
2023-04-16T20:39:50.264Z,102023.22
2023-04-16T20:42:16.743Z,102013.06
2023-04-16T20:44:50.305Z,102021.47
2023-04-16T20:47:17.215Z,102021.63
2023-04-16T20:49:46.462Z,102029.22
2023-04-16T20:52:13.886Z,102026.59
2023-04-16T20:54:40.519Z,102029.34
2023-04-16T20:57:07.615Z,102027.69
2023-04-16T20:59:34.077Z,102028.13
2023-04-16T21:02:00.784Z,102030.38
2023-04-16T21:04:27.420Z,102039.06
2023-04-16T21:06:53.982Z,102022.66
2023-04-16T21:09:20.788Z,102026.25
2023-04-16T21:11:47.277Z,102034.38
2023-04-16T21:14:13.791Z,102032.59
2023-04-16T21:16:40.384Z,102033.44
2023-04-16T21:19:08.625Z,102039.63
2023-04-16T21:21:35.341Z,102034.28
2023-04-16T21:24:01.822Z,102028.59
2023-04-16T21:26:28.361Z,102040.47
2023-04-16T21:28:55.251Z,102038.97
2023-04-16T21:31:21.954Z,102037.03
2023-04-16T21:33:48.509Z,102044.06
2023-04-16T21:36:15.536Z,102037.75
2023-04-16T21:38:42.056Z,102047.13
2023-04-16T21:41:08.485Z,102037.75
2023-04-16T21:43:34.914Z,102039.09
2023-04-16T21:46:01.409Z,102041.88
2023-04-16T21:48:28.502Z,102046.28
2023-04-16T21:50:59.828Z,102037.06
2023-04-16T21:53:28.049Z,102030.28
2023-04-16T21:55:54.567Z,102039.94
2023-04-16T21:58:21.002Z,102044.25
2023-04-16T22:00:47.549Z,102050.16
2023-04-16T22:03:14.872Z,102045.06
2023-04-16T22:05:41.412Z,102044.66
2023-04-16T22:08:23.610Z,102044.25
2023-04-16T22:10:51.364Z,102038.56
2023-04-16T22:13:18.078Z,102037.75
2023-04-16T22:15:44.588Z,102048.94
2023-04-16T22:18:11.493Z,102044.38
2023-04-16T22:20:39.249Z,102038.56
2023-04-16T22:23:08.937Z,102052.94
2023-04-16T22:25:35.484Z,102048.13
2023-04-16T22:28:02.018Z,102039.81
2023-04-16T22:30:28.484Z,102046.59
2023-04-16T22:32:55.279Z,102046.88
2023-04-16T22:35:21.882Z,102049.22
2023-04-16T22:37:48.322Z,102048.53
2023-04-16T22:40:15.663Z,102052.66
2023-04-16T22:42:42.281Z,102054.59
2023-04-16T22:45:09.004Z,102043.03
2023-04-16T22:47:35.641Z,102054.88
2023-04-16T22:50:03.296Z,102051.59
2023-04-16T22:52:29.791Z,102053.34
2023-04-16T22:54:56.210Z,102036.69
2023-04-16T22:57:25.359Z,102057.91
2023-04-16T22:59:52.992Z,102052.81
2023-04-16T23:02:20.703Z,102048.69
2023-04-16T23:04:47.914Z,102048.84
2023-04-16T23:07:15.586Z,102055.56
2023-04-16T23:09:45.316Z,102044.69
2023-04-16T23:12:11.768Z,102054.75
2023-04-16T23:14:38.192Z,102054.19
2023-04-16T23:17:04.752Z,102057.94
2023-04-16T23:19:31.709Z,102056.56
2023-04-16T23:21:58.201Z,102063.31
2023-04-16T23:24:24.881Z,102056.81
2023-04-16T23:26:52.442Z,102053.66
2023-04-16T23:29:19.739Z,102060.69
2023-04-16T23:31:46.271Z,102059.03
2023-04-16T23:34:12.780Z,102062.91
2023-04-16T23:36:40.573Z,102068.81
2023-04-16T23:39:07.068Z,102068.81
2023-04-16T23:41:33.519Z,102068.16
2023-04-16T23:43:59.964Z,102059.84
2023-04-16T23:46:26.491Z,102074.44
2023-04-16T23:48:55.109Z,102061.75
2023-04-16T23:51:21.622Z,102066.16
2023-04-16T23:53:48.053Z,102066.44
2023-04-16T23:56:15.394Z,102071.69
2023-04-16T23:58:41.809Z,102061.22
